Portada
METAR-TAF:

METAR-TAF

Aeropuertos :

Avilés, España

Aeropuerto de Asturias

latitud: 43-33N, longitud: 006-02W, altitud: 127 m

Observación

El informe se hizo hace 42 minutos, a las 07:30 UTC
Viento 2 kt con dirección variable
Temperatura 10°C
Humedad 66%
Presión 1023 hPa
Visibilidad 10 km o más
Escasas nubes a una altura de 1000 ft
Cielo nuboso a una altura de 7500 ft

METAR: LEAS 280730Z VRB02KT 9999 FEW010 BKN075 10/04 Q1023 NOSIG

Hora: 10:12 (08:12 UTC)

Pronóstico

El informe se hizo hace 6 horas y 12 minutos, a las 02:00 UTC
Pronóstico válido del 28 a las 03 UTC al 29 a las 03 UTC
Viento 7 kt del sur-sureste
Visibilidad 10 km o más
sin nubes por debajo de 1500 m y sin presencia de cumulonimbus.
Temporalmente
del 28 a las 12 UTC al 28 a las 18 UTC
Viento 10 kt del este-noreste

TAF: LEAS 280200Z 2803/2903 16007KT CAVOK TX19/2815Z TN06/2806Z TEMPO 2812/2818 07010KT

Observaciones y pronósticos meteorológicos de más de 4000 aeropuertos (mensajes METAR y TAF).

Los puntos amarillos y rojos representan las estaciones disponibles.

Ponga el ratón en el punto deseado para ver el nombre de la estación.

Haga clic para ver las observaciones y los pronósticos meteorológicos.

Para cambiar el mapa : haga clic en los botones verdes con una cruz de color negro para hacer un zoom, en el botón verde con un guión para alejar o en las flechas verdes para mapas adyacentes.


METAR-TAF: